Time;durP1;ratioP1;P1;durP2;ratioP2;P2;SDS_P1;SDS_P2;PMS_P1;PMS_P2;Temp;Humidity;BMP_temperature;BMP_pressure;BME280_temperature;BME280_humidity;BME280_pressure;Samples;Min_cycle;Max_cycle;Signal;HPM_P1;HPM_P2
2022/08/18 00:00:56;;;;;;;9.03;7.67;;;;;;;;;;4976161;28;20649;-83
2022/08/18 00:04:02;;;;;;;7.70;6.97;;;;;;;;;;4933944;29;20211;-84
2022/08/18 00:07:11;;;;;;;10.77;7.37;;;;;;;;;;4955257;29;20215;-86
2022/08/18 00:10:15;;;;;;;7.97;7.07;;;;;;;;;;4973995;28;20182;-83
2022/08/18 00:13:19;;;;;;;9.10;8.00;;;;;;;;;;4955908;28;20198;-85
2022/08/18 00:16:23;;;;;;;9.27;7.23;;;;;;;;;;4963552;28;20179;-83
2022/08/18 00:19:27;;;;;;;9.27;7.37;;;;;;;;;;4974457;28;20630;-86
2022/08/18 00:22:32;;;;;;;7.67;6.87;;;;;;;;;;4962993;28;20214;-85
2022/08/18 00:25:36;;;;;;;7.87;6.87;;;;;;;;;;4952688;28;20202;-83
2022/08/18 00:28:40;;;;;;;8.03;6.83;;;;;;;;;;4976795;28;20187;-83
2022/08/18 00:31:44;;;;;;;7.80;6.80;;;;;;;;;;4963264;28;20210;-86
2022/08/18 00:34:49;;;;;;;7.77;6.97;;;;;;;;;;4973871;28;20191;-86
2022/08/18 00:37:55;;;;;;;11.33;7.93;;;;;;;;;;4963104;28;20178;-85
2022/08/18 00:41:00;;;;;;;11.77;7.60;;;;;;;;;;4981760;28;20194;-86
2022/08/18 00:44:04;;;;;;;9.70;8.23;;;;;;;;;;4971222;28;20178;-85
2022/08/18 00:47:09;;;;;;;8.07;7.37;;;;;;;;;;4934277;29;20211;-84
2022/08/18 00:50:25;;;;;;;10.47;6.97;;;;;;;;;;4946422;29;20188;-83
2022/08/18 00:53:44;;;;;;;9.27;6.97;;;;;;;;;;4933843;29;20191;-84
2022/08/18 00:56:52;;;;;;;9.00;8.20;;;;;;;;;;4946184;28;20180;-85
2022/08/18 01:00:15;;;;;;;9.80;7.63;;;;;;;;;;4947827;29;20180;-85
2022/08/18 01:03:21;;;;;;;9.60;7.63;;;;;;;;;;4948085;29;20215;-86
2022/08/18 01:06:34;;;;;;;8.20;7.37;;;;;;;;;;4937954;29;20208;-83
2022/08/18 01:09:38;;;;;;;8.33;7.23;;;;;;;;;;4949321;29;20207;-86
2022/08/18 01:12:44;;;;;;;8.80;6.93;;;;;;;;;;4946808;29;20227;-86
2022/08/18 01:15:48;;;;;;;9.33;8.33;;;;;;;;;;4946988;29;20203;-85
2022/08/18 01:22:25;;;;;;;10.90;7.40;;;;;;;;;;4949654;29;20690;-85
2022/08/18 01:28:53;;;;;;;12.60;8.37;;;;;;;;;;4947403;29;20188;-85
2022/08/18 01:31:58;;;;;;;8.50;7.60;;;;;;;;;;4957553;29;20543;-85
2022/08/18 01:35:02;;;;;;;9.23;8.23;;;;;;;;;;4936864;29;20527;-83
2022/08/18 01:38:06;;;;;;;11.53;8.17;;;;;;;;;;4962399;28;20186;-86
2022/08/18 01:41:11;;;;;;;8.43;7.30;;;;;;;;;;4975199;28;20218;-84
2022/08/18 01:44:15;;;;;;;8.77;7.63;;;;;;;;;;4976083;28;20629;-83
2022/08/18 01:47:19;;;;;;;9.57;7.67;;;;;;;;;;4972760;28;20218;-85
2022/08/18 01:50:24;;;;;;;8.47;6.67;;;;;;;;;;4985981;28;20187;-83
2022/08/18 01:53:28;;;;;;;9.37;7.70;;;;;;;;;;4985617;28;20182;-85
2022/08/18 01:56:32;;;;;;;8.77;7.53;;;;;;;;;;4997674;28;20245;-85
2022/08/18 01:59:36;;;;;;;7.87;7.00;;;;;;;;;;4980327;28;20187;-86
2022/08/18 02:02:41;;;;;;;9.60;7.47;;;;;;;;;;4957406;28;20230;-86
2022/08/18 02:05:48;;;;;;;10.33;7.60;;;;;;;;;;4965053;28;20499;-86
2022/08/18 02:08:52;;;;;;;10.60;7.10;;;;;;;;;;4975911;28;20203;-86
2022/08/18 02:11:56;;;;;;;10.63;7.30;;;;;;;;;;4934768;29;20219;-86
2022/08/18 02:15:00;;;;;;;8.93;7.40;;;;;;;;;;4983765;28;20546;-86
2022/08/18 02:18:04;;;;;;;7.93;7.13;;;;;;;;;;4984602;28;20175;-86
2022/08/18 02:21:12;;;;;;;8.37;7.57;;;;;;;;;;4984275;28;20217;-86
2022/08/18 02:24:16;;;;;;;9.10;8.20;;;;;;;;;;4995271;28;20198;-86
2022/08/18 02:27:20;;;;;;;8.63;7.87;;;;;;;;;;4984665;28;20214;-86
2022/08/18 02:30:24;;;;;;;9.60;8.37;;;;;;;;;;4995409;28;20186;-86
2022/08/18 02:33:29;;;;;;;10.07;8.97;;;;;;;;;;4972822;28;20665;-86
2022/08/18 02:36:33;;;;;;;8.67;7.73;;;;;;;;;;4983997;28;20190;-86
2022/08/18 02:39:37;;;;;;;9.03;8.13;;;;;;;;;;4972955;28;20183;-86
2022/08/18 02:42:43;;;;;;;9.27;7.43;;;;;;;;;;4973842;28;20218;-84
2022/08/18 02:45:47;;;;;;;11.37;8.73;;;;;;;;;;4996377;28;20178;-83
2022/08/18 02:48:52;;;;;;;9.30;8.37;;;;;;;;;;4973663;28;20182;-83
2022/08/18 02:51:56;;;;;;;10.30;8.87;;;;;;;;;;4966682;28;20218;-83
2022/08/18 02:55:01;;;;;;;9.47;8.23;;;;;;;;;;4947057;29;20183;-83
2022/08/18 02:58:05;;;;;;;8.77;7.83;;;;;;;;;;4957278;29;20180;-83
2022/08/18 03:01:09;;;;;;;10.10;8.93;;;;;;;;;;4972837;23;20564;-85
2022/08/18 03:04:18;;;;;;;15.33;10.30;;;;;;;;;;5002035;28;20213;-85
2022/08/18 03:07:24;;;;;;;12.37;9.43;;;;;;;;;;4991949;28;20209;-85
2022/08/18 03:10:28;;;;;;;12.27;10.47;;;;;;;;;;5003338;28;20181;-85
2022/08/18 03:13:32;;;;;;;10.60;9.00;;;;;;;;;;4983643;28;20189;-85
2022/08/18 03:16:39;;;;;;;11.80;10.27;;;;;;;;;;4994563;28;20522;-85
2022/08/18 03:19:45;;;;;;;10.30;8.73;;;;;;;;;;4971848;28;20700;-85
2022/08/18 03:22:49;;;;;;;10.73;9.63;;;;;;;;;;4994112;28;20226;-85
2022/08/18 03:25:53;;;;;;;10.60;8.93;;;;;;;;;;4983106;28;20186;-85
2022/08/18 03:28:58;;;;;;;11.30;9.10;;;;;;;;;;4974709;28;20183;-85
2022/08/18 03:32:05;;;;;;;12.87;9.20;;;;;;;;;;4974566;28;20214;-85
2022/08/18 03:35:09;;;;;;;9.57;8.57;;;;;;;;;;4982777;28;20194;-85
2022/08/18 03:38:13;;;;;;;9.63;8.63;;;;;;;;;;4993761;28;20661;-85
2022/08/18 03:41:23;;;;;;;10.23;9.07;;;;;;;;;;4993950;28;20197;-85
2022/08/18 03:44:35;;;;;;;9.90;8.67;;;;;;;;;;4974493;28;20186;-85
2022/08/18 03:47:39;;;;;;;11.17;9.33;;;;;;;;;;4963491;28;20248;-85
2022/08/18 03:50:45;;;;;;;12.70;8.47;;;;;;;;;;4974392;28;20183;-85
2022/08/18 03:53:50;;;;;;;10.03;9.03;;;;;;;;;;4989420;28;20182;-85
2022/08/18 03:56:54;;;;;;;10.87;9.00;;;;;;;;;;4972199;28;20190;-87
2022/08/18 03:59:59;;;;;;;11.27;9.00;;;;;;;;;;4985204;28;20195;-87
2022/08/18 04:03:04;;;;;;;11.83;8.30;;;;;;;;;;4962814;28;20222;-89
2022/08/18 04:06:15;;;;;;;8.37;7.57;;;;;;;;;;4952540;28;20199;-84
2022/08/18 04:09:21;;;;;;;12.10;9.30;;;;;;;;;;4963548;28;20194;-88
2022/08/18 04:12:25;;;;;;;9.20;8.17;;;;;;;;;;4974259;28;20214;-86
2022/08/18 04:15:30;;;;;;;15.70;10.13;;;;;;;;;;4991509;28;20197;-86
2022/08/18 04:18:35;;;;;;;12.77;9.43;;;;;;;;;;4966215;28;20225;-86
2022/08/18 04:21:41;;;;;;;9.53;8.23;;;;;;;;;;4982193;28;20214;-86
2022/08/18 04:24:45;;;;;;;9.60;8.60;;;;;;;;;;5004644;28;20546;-87
2022/08/18 04:27:49;;;;;;;9.33;8.43;;;;;;;;;;4982835;28;20213;-87
2022/08/18 04:30:55;;;;;;;8.40;7.60;;;;;;;;;;4993700;28;20197;-87
2022/08/18 04:34:00;;;;;;;9.73;8.73;;;;;;;;;;4966695;28;20182;-87
2022/08/18 04:37:07;;;;;;;11.17;8.87;;;;;;;;;;4989116;28;20175;-87
2022/08/18 04:40:13;;;;;;;10.97;9.33;;;;;;;;;;4977780;28;20183;-87
2022/08/18 04:43:17;;;;;;;10.83;8.93;;;;;;;;;;4966427;28;20587;-87
2022/08/18 04:46:22;;;;;;;10.40;8.97;;;;;;;;;;4977768;28;20179;-86
2022/08/18 04:49:26;;;;;;;10.70;9.40;;;;;;;;;;4984305;28;20205;-86
2022/08/18 04:55:54;;;;;;;12.40;9.20;;;;;;;;;;4977386;28;20196;-86
2022/08/18 04:59:00;;;;;;;9.37;8.33;;;;;;;;;;4977672;28;20183;-86
2022/08/18 05:02:07;;;;;;;9.57;8.60;;;;;;;;;;4955133;28;20221;-86
2022/08/18 05:05:11;;;;;;;8.97;8.07;;;;;;;;;;4966322;28;20179;-86
2022/08/18 05:08:15;;;;;;;11.23;9.43;;;;;;;;;;4981595;28;20230;-86
2022/08/18 05:11:21;;;;;;;8.90;8.10;;;;;;;;;;4985773;28;20187;-87
2022/08/18 05:14:26;;;;;;;9.67;8.10;;;;;;;;;;4985016;28;20190;-86
2022/08/18 05:17:30;;;;;;;10.33;8.60;;;;;;;;;;4977193;28;20179;-86
2022/08/18 05:20:39;;;;;;;13.97;8.20;;;;;;;;;;4975685;28;20194;-85
2022/08/18 05:23:46;;;;;;;10.47;8.57;;;;;;;;;;4978199;28;20202;-85
2022/08/18 05:26:51;;;;;;;10.43;9.33;;;;;;;;;;4977879;28;20187;-85
2022/08/18 05:29:55;;;;;;;9.63;8.50;;;;;;;;;;4978408;28;20626;-85
2022/08/18 05:33:02;;;;;;;11.17;10.07;;;;;;;;;;4996765;28;20221;-87
2022/08/18 05:36:29;;;;;;;9.60;8.60;;;;;;;;;;4992742;28;20193;-85
2022/08/18 05:39:45;;;;;;;9.77;8.73;;;;;;;;;;4992492;28;20630;-85
2022/08/18 05:42:50;;;;;;;13.87;11.20;;;;;;;;;;4995993;28;20214;-86
2022/08/18 05:45:55;;;;;;;11.73;10.63;;;;;;;;;;4987984;28;20201;-86
2022/08/18 05:48:59;;;;;;;13.93;11.73;;;;;;;;;;4965197;28;20238;-86
2022/08/18 05:52:11;;;;;;;13.53;11.60;;;;;;;;;;4976968;28;20295;-86
2022/08/18 05:58:51;;;;;;;13.87;11.57;;;;;;;;;;4965413;28;20185;-87
2022/08/18 06:02:20;;;;;;;12.17;10.87;;;;;;;;;;4975951;28;20249;-87
2022/08/18 06:05:34;;;;;;;14.37;11.70;;;;;;;;;;4965221;28;20194;-86
2022/08/18 06:09:05;;;;;;;14.63;12.40;;;;;;;;;;4987433;28;20229;-86
2022/08/18 06:12:24;;;;;;;13.60;11.20;;;;;;;;;;4979490;28;20238;-87
2022/08/18 06:15:34;;;;;;;15.33;12.43;;;;;;;;;;4993876;28;20567;-86
2022/08/18 06:18:47;;;;;;;15.00;11.63;;;;;;;;;;4983212;28;20198;-86
2022/08/18 06:22:06;;;;;;;14.03;11.43;;;;;;;;;;4983293;28;20224;-86
2022/08/18 06:25:33;;;;;;;12.43;10.50;;;;;;;;;;4980266;28;20202;-86
2022/08/18 06:29:20;;;;;;;13.43;9.23;;;;;;;;;;4976403;28;20578;-87
2022/08/18 06:32:30;;;;;;;13.30;10.93;;;;;;;;;;4954307;28;20575;-85
2022/08/18 06:35:37;;;;;;;12.37;11.07;;;;;;;;;;4975747;28;20205;-86
2022/08/18 06:38:57;;;;;;;11.40;10.30;;;;;;;;;;4985963;28;20210;-86
2022/08/18 06:42:04;;;;;;;11.50;10.30;;;;;;;;;;4975623;28;20229;-86
2022/08/18 06:45:11;;;;;;;12.73;10.60;;;;;;;;;;4964571;28;20202;-86
2022/08/18 06:48:49;;;;;;;13.63;11.23;;;;;;;;;;4981041;28;20585;-86
2022/08/18 06:51:53;;;;;;;11.43;10.03;;;;;;;;;;4973378;28;20231;-86
2022/08/18 06:55:01;;;;;;;12.00;10.47;;;;;;;;;;4964038;28;20601;-86
2022/08/18 06:58:12;;;;;;;13.73;10.90;;;;;;;;;;4967856;28;20189;-86
2022/08/18 07:01:16;;;;;;;12.23;10.83;;;;;;;;;;4986600;28;20193;-86
2022/08/18 07:04:42;;;;;;;12.47;11.17;;;;;;;;;;4964221;28;20217;-86
2022/08/18 07:08:09;;;;;;;14.00;10.57;;;;;;;;;;4965316;28;20217;-86
2022/08/18 07:11:19;;;;;;;12.10;10.10;;;;;;;;;;4983089;28;20198;-86
2022/08/18 07:14:24;;;;;;;11.80;10.40;;;;;;;;;;4964160;28;20645;-86
2022/08/18 07:17:32;;;;;;;13.30;10.00;;;;;;;;;;4965268;28;20676;-86
2022/08/18 07:20:58;;;;;;;16.60;10.17;;;;;;;;;;4964041;28;20210;-86
2022/08/18 07:24:05;;;;;;;14.37;10.80;;;;;;;;;;4974098;28;20201;-86
2022/08/18 07:27:16;;;;;;;11.13;10.07;;;;;;;;;;4963803;28;20190;-86
2022/08/18 07:30:20;;;;;;;13.50;11.27;;;;;;;;;;4998968;28;20205;-86
2022/08/18 07:33:24;;;;;;;15.80;12.07;;;;;;;;;;4983125;28;20229;-86
2022/08/18 07:36:34;;;;;;;13.90;12.33;;;;;;;;;;4983141;28;20185;-86
2022/08/18 07:39:55;;;;;;;13.30;12.00;;;;;;;;;;4963557;28;20203;-85
2022/08/18 07:43:05;;;;;;;13.73;12.33;;;;;;;;;;4974493;28;20230;-86
2022/08/18 07:46:16;;;;;;;14.37;12.93;;;;;;;;;;4987625;28;20197;-86
2022/08/18 07:49:23;;;;;;;13.93;12.57;;;;;;;;;;4965699;28;20226;-86
2022/08/18 07:52:30;;;;;;;11.43;10.43;;;;;;;;;;4963396;28;20725;-86
2022/08/18 07:55:35;;;;;;;13.97;11.80;;;;;;;;;;4963490;28;20189;-86
2022/08/18 07:59:17;;;;;;;14.57;11.77;;;;;;;;;;4973759;28;20197;-86
2022/08/18 08:02:24;;;;;;;12.70;11.50;;;;;;;;;;4945643;28;20601;-86
2022/08/18 08:05:34;;;;;;;15.73;11.07;;;;;;;;;;4992268;28;20553;-86
2022/08/18 08:08:43;;;;;;;11.67;10.50;;;;;;;;;;4991010;28;20225;-86
2022/08/18 08:11:55;;;;;;;10.70;9.40;;;;;;;;;;4971164;28;20245;-86
2022/08/18 08:15:21;;;;;;;12.07;9.67;;;;;;;;;;4982638;28;20183;-86
2022/08/18 08:18:40;;;;;;;10.83;9.07;;;;;;;;;;4982486;28;20192;-86
2022/08/18 08:22:09;;;;;;;13.57;10.80;;;;;;;;;;4982680;28;20225;-86
2022/08/18 08:25:23;;;;;;;10.67;9.57;;;;;;;;;;4993568;28;20191;-86
2022/08/18 08:28:27;;;;;;;12.40;8.60;;;;;;;;;;4976639;28;20217;-86
2022/08/18 08:31:45;;;;;;;15.00;10.87;;;;;;;;;;4962833;28;20218;-87
2022/08/18 08:35:00;;;;;;;11.17;9.70;;;;;;;;;;4963064;28;20188;-86
2022/08/18 08:38:15;;;;;;;10.17;9.27;;;;;;;;;;4971056;28;20193;-86
2022/08/18 08:41:31;;;;;;;11.10;10.00;;;;;;;;;;4984229;28;20214;-86
2022/08/18 08:44:45;;;;;;;11.70;9.20;;;;;;;;;;4974071;28;20629;-86
2022/08/18 08:48:02;;;;;;;10.83;9.73;;;;;;;;;;4964033;28;20193;-86
2022/08/18 08:51:20;;;;;;;13.23;9.93;;;;;;;;;;4964407;28;20521;-86
2022/08/18 08:54:42;;;;;;;10.00;8.93;;;;;;;;;;4981763;28;20534;-86
2022/08/18 08:57:55;;;;;;;9.67;8.73;;;;;;;;;;4973623;28;20204;-86
2022/08/18 09:01:00;;;;;;;10.67;9.43;;;;;;;;;;4958288;28;20658;-86
2022/08/18 09:04:22;;;;;;;10.63;9.53;;;;;;;;;;5031779;23;20573;-86
2022/08/18 09:07:44;;;;;;;10.90;7.83;;;;;;;;;;4981840;28;20184;-86
2022/08/18 09:11:15;;;;;;;11.37;9.80;;;;;;;;;;4982993;28;20203;-84
2022/08/18 09:14:45;;;;;;;11.52;10.32;;;;;;;;;;4953616;28;20220;-84
2022/08/18 09:18:21;;;;;;;11.87;9.33;;;;;;;;;;4953433;28;20187;-84
2022/08/18 09:21:38;;;;;;;9.50;7.55;;;;;;;;;;4968425;28;20182;-85
2022/08/18 09:25:01;;;;;;;12.32;7.82;;;;;;;;;;4968706;28;20516;-85
2022/08/18 09:28:19;;;;;;;9.40;7.80;;;;;;;;;;4956444;28;20189;-84
2022/08/18 09:31:25;;;;;;;7.47;6.60;;;;;;;;;;4979939;28;20231;-84
2022/08/18 09:35:02;;;;;;;8.55;7.50;;;;;;;;;;4956577;28;20225;-85
2022/08/18 09:42:03;;;;;;;8.30;7.20;;;;;;;;;;4967518;28;20193;-85
2022/08/18 09:45:38;;;;;;;9.00;7.47;;;;;;;;;;4967355;28;20181;-85
2022/08/18 09:48:43;;;;;;;8.95;7.82;;;;;;;;;;4956160;28;20217;-84
2022/08/18 09:51:53;;;;;;;8.80;7.50;;;;;;;;;;4956318;28;20525;-84
2022/08/18 09:54:57;;;;;;;10.25;9.25;;;;;;;;;;4967429;28;20179;-84
2022/08/18 09:58:18;;;;;;;9.98;8.32;;;;;;;;;;4967003;28;20182;-86
2022/08/18 10:01:35;;;;;;;9.98;7.32;;;;;;;;;;4967990;28;20187;-84
2022/08/18 10:04:52;;;;;;;9.43;8.15;;;;;;;;;;4977894;28;20224;-85
2022/08/18 10:08:06;;;;;;;9.57;8.05;;;;;;;;;;4978238;28;20183;-84
2022/08/18 10:11:30;;;;;;;9.00;7.57;;;;;;;;;;4955591;28;20195;-85
2022/08/18 10:15:07;;;;;;;8.40;7.60;;;;;;;;;;4974205;28;20222;-84
2022/08/18 10:18:36;;;;;;;10.63;8.88;;;;;;;;;;4965855;28;20190;-84
2022/08/18 10:22:08;;;;;;;7.85;6.68;;;;;;;;;;4997454;28;20194;-85
2022/08/18 10:25:26;;;;;;;8.07;7.38;;;;;;;;;;4986565;28;20182;-85
2022/08/18 10:28:49;;;;;;;8.73;7.88;;;;;;;;;;4986143;28;20212;-84
2022/08/18 10:31:57;;;;;;;8.10;7.35;;;;;;;;;;4970152;28;20194;-85
2022/08/18 10:35:01;;;;;;;8.32;7.50;;;;;;;;;;4970135;28;20195;-84
2022/08/18 10:38:17;;;;;;;8.93;7.32;;;;;;;;;;4966856;28;20515;-84
2022/08/18 10:41:27;;;;;;;8.15;7.35;;;;;;;;;;4977931;28;20184;-85
2022/08/18 10:44:39;;;;;;;9.43;7.05;;;;;;;;;;4966618;28;20219;-84
2022/08/18 10:47:56;;;;;;;10.43;9.43;;;;;;;;;;4966076;28;20186;-84
2022/08/18 10:51:10;;;;;;;7.78;6.97;;;;;;;;;;4955417;28;20183;-85
2022/08/18 10:54:26;;;;;;;10.10;7.93;;;;;;;;;;4954887;28;20694;-85
2022/08/18 10:58:16;;;;;;;7.95;7.25;;;;;;;;;;4963750;28;20210;-84
2022/08/18 11:01:32;;;;;;;9.95;8.60;;;;;;;;;;4976573;28;20202;-84
2022/08/18 11:04:50;;;;;;;7.78;7.05;;;;;;;;;;4986094;28;20222;-85
2022/08/18 11:08:01;;;;;;;8.98;7.40;;;;;;;;;;4974452;28;20178;-85
2022/08/18 11:11:10;;;;;;;9.02;7.88;;;;;;;;;;4973995;28;20179;-85
2022/08/18 11:14:42;;;;;;;6.68;6.07;;;;;;;;;;4985376;28;20681;-85
2022/08/18 11:18:09;;;;;;;8.10;6.70;;;;;;;;;;4973623;28;20518;-85
2022/08/18 11:21:34;;;;;;;7.18;6.47;;;;;;;;;;4995942;28;20179;-85
2022/08/18 11:24:43;;;;;;;7.47;6.13;;;;;;;;;;4984118;28;20214;-85
2022/08/18 11:27:47;;;;;;;7.10;6.40;;;;;;;;;;4984261;28;20186;-85
2022/08/18 11:30:54;;;;;;;7.47;6.40;;;;;;;;;;4977174;28;20186;-85
2022/08/18 11:33:59;;;;;;;8.25;5.97;;;;;;;;;;4983634;28;20214;-85
2022/08/18 11:37:20;;;;;;;6.88;5.22;;;;;;;;;;4985165;28;20186;-85
2022/08/18 11:40:43;;;;;;;6.45;5.75;;;;;;;;;;4973200;28;20183;-85
2022/08/18 11:43:47;;;;;;;5.90;5.13;;;;;;;;;;4972660;28;20222;-84
2022/08/18 11:46:58;;;;;;;9.15;5.68;;;;;;;;;;4973379;28;20183;-84
2022/08/18 11:50:11;;;;;;;7.20;6.15;;;;;;;;;;4994465;28;20206;-84
2022/08/18 11:53:24;;;;;;;5.95;5.40;;;;;;;;;;4953424;28;20566;-85
2022/08/18 11:56:33;;;;;;;7.82;6.13;;;;;;;;;;4975872;28;20183;-85
2022/08/18 11:59:37;;;;;;;12.68;6.57;;;;;;;;;;4953150;28;20541;-85
2022/08/18 12:02:41;;;;;;;8.52;5.80;;;;;;;;;;4964264;28;20222;-85
2022/08/18 12:05:51;;;;;;;6.97;5.55;;;;;;;;;;4970286;28;20657;-85
2022/08/18 12:09:04;;;;;;;6.25;5.07;;;;;;;;;;4953868;28;20211;-85
2022/08/18 12:12:14;;;;;;;7.13;4.60;;;;;;;;;;4952756;28;20183;-85
2022/08/18 12:15:18;;;;;;;9.13;4.80;;;;;;;;;;4952812;28;20542;-84
2022/08/18 12:18:23;;;;;;;5.07;4.57;;;;;;;;;;4952322;28;20187;-85
2022/08/18 12:21:28;;;;;;;5.70;4.18;;;;;;;;;;4952388;28;20171;-85
2022/08/18 12:24:32;;;;;;;4.40;4.07;;;;;;;;;;4952449;28;20211;-86
2022/08/18 12:27:36;;;;;;;6.20;4.20;;;;;;;;;;4953770;28;20191;-85
2022/08/18 12:30:40;;;;;;;4.75;4.35;;;;;;;;;;4971232;28;20210;-85
2022/08/18 12:33:45;;;;;;;9.13;4.75;;;;;;;;;;4983497;28;20221;-86
2022/08/18 12:36:54;;;;;;;5.65;4.90;;;;;;;;;;4982318;28;20202;-85
2022/08/18 12:39:59;;;;;;;5.10;4.60;;;;;;;;;;4982625;28;20182;-85
2022/08/18 12:43:04;;;;;;;5.18;4.68;;;;;;;;;;4982028;28;20222;-86
2022/08/18 12:46:08;;;;;;;5.90;4.38;;;;;;;;;;4966276;28;20199;-86
2022/08/18 12:49:20;;;;;;;5.00;4.60;;;;;;;;;;4979368;28;20222;-86
2022/08/18 12:52:24;;;;;;;8.45;4.60;;;;;;;;;;4981132;28;20211;-86
2022/08/18 12:55:33;;;;;;;6.32;5.03;;;;;;;;;;4956009;28;20202;-86
2022/08/18 12:58:38;;;;;;;10.02;5.30;;;;;;;;;;4973888;28;20203;-86
2022/08/18 13:01:42;;;;;;;7.55;4.78;;;;;;;;;;4986514;28;20179;-88
2022/08/18 13:04:46;;;;;;;5.13;4.57;;;;;;;;;;4966417;28;20560;-87
2022/08/18 13:07:50;;;;;;;5.57;4.75;;;;;;;;;;4966676;28;20183;-86
2022/08/18 13:10:54;;;;;;;10.70;4.78;;;;;;;;;;4966143;28;20569;-83
2022/08/18 13:13:59;;;;;;;6.82;4.40;;;;;;;;;;4966762;28;20218;-84
2022/08/18 13:17:04;;;;;;;6.05;4.10;;;;;;;;;;4966127;28;20183;-83
2022/08/18 13:20:14;;;;;;;4.93;4.30;;;;;;;;;;4955030;28;20179;-83
2022/08/18 13:23:20;;;;;;;4.82;4.40;;;;;;;;;;4976874;28;20211;-83
2022/08/18 13:26:29;;;;;;;6.43;4.40;;;;;;;;;;4961329;28;20206;-83
2022/08/18 13:29:33;;;;;;;4.30;3.72;;;;;;;;;;4974173;28;20218;-83
2022/08/18 13:32:37;;;;;;;6.15;4.05;;;;;;;;;;4971911;28;20191;-83
2022/08/18 13:35:41;;;;;;;5.90;4.32;;;;;;;;;;4971272;28;20195;-84
2022/08/18 13:38:45;;;;;;;5.85;3.95;;;;;;;;;;4966508;28;20195;-82
2022/08/18 13:41:51;;;;;;;10.60;5.07;;;;;;;;;;4966131;28;20191;-83
2022/08/18 13:44:59;;;;;;;5.18;4.00;;;;;;;;;;4995849;28;20187;-84
2022/08/18 13:48:04;;;;;;;5.00;4.50;;;;;;;;;;4984476;28;20196;-84
2022/08/18 13:51:16;;;;;;;6.22;4.40;;;;;;;;;;4956903;28;20207;-84
2022/08/18 13:54:22;;;;;;;5.22;4.57;;;;;;;;;;4968319;28;20222;-84
2022/08/18 13:57:27;;;;;;;5.00;4.50;;;;;;;;;;4982822;28;20554;-84
2022/08/18 14:00:32;;;;;;;6.75;4.90;;;;;;;;;;4963493;28;20199;-84
2022/08/18 14:03:38;;;;;;;4.75;4.35;;;;;;;;;;4970745;28;20226;-84
2022/08/18 14:06:42;;;;;;;6.38;4.72;;;;;;;;;;4973547;28;20202;-84
2022/08/18 14:09:46;;;;;;;6.82;4.60;;;;;;;;;;4979901;28;20211;-84
2022/08/18 14:12:55;;;;;;;10.13;5.30;;;;;;;;;;4954295;28;20555;-84
2022/08/18 14:16:00;;;;;;;5.78;4.80;;;;;;;;;;4966977;28;20194;-84
2022/08/18 14:29:15;;;;;;;7.72;5.25;;;;;;;;;;4981921;28;20191;-84
2022/08/18 14:32:21;;;;;;;7.40;5.35;;;;;;;;;;4955210;28;20647;-84
2022/08/18 14:35:25;;;;;;;7.32;5.28;;;;;;;;;;4991750;28;20193;-85
2022/08/18 14:38:30;;;;;;;18.13;5.55;;;;;;;;;;4984207;28;20184;-84
2022/08/18 14:41:34;;;;;;;6.47;5.88;;;;;;;;;;4995646;28;20533;-83
2022/08/18 14:44:38;;;;;;;7.07;5.43;;;;;;;;;;4973807;28;20692;-84
2022/08/18 14:47:42;;;;;;;7.43;5.68;;;;;;;;;;4959825;28;20263;-84
2022/08/18 14:50:54;;;;;;;6.47;5.47;;;;;;;;;;4973735;28;20210;-84
2022/08/18 14:53:58;;;;;;;8.25;5.70;;;;;;;;;;4954208;28;20224;-84
2022/08/18 14:57:04;;;;;;;8.40;5.30;;;;;;;;;;4965188;28;20189;-84
2022/08/18 15:00:14;;;;;;;5.70;5.18;;;;;;;;;;4967403;28;20191;-84
2022/08/18 15:03:18;;;;;;;6.43;5.82;;;;;;;;;;5005857;22;20573;-83
2022/08/18 15:06:22;;;;;;;7.45;5.70;;;;;;;;;;4996330;28;20188;-83
2022/08/18 15:09:28;;;;;;;11.85;5.47;;;;;;;;;;4985741;28;20639;-83
2022/08/18 15:12:33;;;;;;;6.38;5.68;;;;;;;;;;4994274;28;20193;-83
2022/08/18 15:15:37;;;;;;;6.60;5.88;;;;;;;;;;4995906;28;20192;-83
2022/08/18 15:18:43;;;;;;;8.35;5.80;;;;;;;;;;4982807;28;20198;-83
2022/08/18 15:25:56;;;;;;;7.43;5.43;;;;;;;;;;4966019;28;20679;-82
2022/08/18 15:28:34;;;;;;;5.63;4.72;;;;;;;;;;4964719;28;20202;-83
2022/08/18 15:31:38;;;;;;;6.85;4.68;;;;;;;;;;4987633;28;20552;-83
2022/08/18 15:34:43;;;;;;;6.90;5.07;;;;;;;;;;4994459;28;20219;-83
2022/08/18 15:37:48;;;;;;;5.97;5.30;;;;;;;;;;4984106;28;20189;-83
2022/08/18 15:40:58;;;;;;;5.40;4.80;;;;;;;;;;4983364;28;20175;-83
2022/08/18 15:44:04;;;;;;;5.75;5.05;;;;;;;;;;4988948;28;20225;-83
2022/08/18 15:47:08;;;;;;;5.63;4.50;;;;;;;;;;4991269;28;20537;-83
2022/08/18 15:50:14;;;;;;;29.67;5.75;;;;;;;;;;5005041;28;20216;-81
2022/08/18 15:53:22;;;;;;;8.45;5.25;;;;;;;;;;5005040;28;20716;-81
2022/08/18 15:56:27;;;;;;;5.47;4.97;;;;;;;;;;4994163;28;20189;-81
2022/08/18 15:59:31;;;;;;;9.55;5.28;;;;;;;;;;4983112;28;20184;-82
2022/08/18 16:02:39;;;;;;;12.23;5.68;;;;;;;;;;4994214;28;20177;-83
2022/08/18 16:05:53;;;;;;;6.45;5.03;;;;;;;;;;4985582;28;20199;-83
2022/08/18 16:08:58;;;;;;;6.55;4.85;;;;;;;;;;4973246;28;20197;-83
2022/08/18 16:12:03;;;;;;;5.88;5.22;;;;;;;;;;4985138;28;20236;-83
2022/08/18 16:15:08;;;;;;;10.55;5.30;;;;;;;;;;4994642;28;20696;-84
2022/08/18 16:18:13;;;;;;;7.57;5.70;;;;;;;;;;4950126;28;20205;-83
2022/08/18 16:21:20;;;;;;;9.20;5.32;;;;;;;;;;4967284;28;20198;-83
2022/08/18 16:24:24;;;;;;;6.28;5.60;;;;;;;;;;4976211;28;20213;-83
2022/08/18 16:27:31;;;;;;;5.75;5.15;;;;;;;;;;4986843;28;20185;-83
2022/08/18 16:30:35;;;;;;;7.38;5.65;;;;;;;;;;4976432;28;20208;-83
2022/08/18 16:33:41;;;;;;;10.50;6.15;;;;;;;;;;4977437;28;20219;-82
2022/08/18 16:36:45;;;;;;;6.75;5.80;;;;;;;;;;4982349;28;20209;-83
2022/08/18 16:39:49;;;;;;;19.55;6.60;;;;;;;;;;4946870;28;20204;-83
2022/08/18 16:42:54;;;;;;;6.38;5.75;;;;;;;;;;4949755;28;20187;-83
2022/08/18 16:45:58;;;;;;;9.32;6.45;;;;;;;;;;4975847;28;20536;-83
2022/08/18 16:49:06;;;;;;;8.00;6.30;;;;;;;;;;4993995;28;20198;-81
2022/08/18 16:52:12;;;;;;;7.53;6.72;;;;;;;;;;4993000;28;20548;-81
2022/08/18 16:55:17;;;;;;;11.05;7.72;;;;;;;;;;4981977;28;20203;-82
2022/08/18 17:05:07;;;;;;;27.45;11.40;;;;;;;;;;4963436;28;20228;-82
2022/08/18 17:08:12;;;;;;;17.98;9.68;;;;;;;;;;4954735;29;20191;-82
2022/08/18 17:11:17;;;;;;;13.63;8.35;;;;;;;;;;4965919;28;20215;-82
2022/08/18 17:14:25;;;;;;;12.23;8.52;;;;;;;;;;4954488;28;20217;-82
2022/08/18 17:17:30;;;;;;;22.37;11.13;;;;;;;;;;4966301;28;20529;-83
2022/08/18 17:20:35;;;;;;;7.13;6.47;;;;;;;;;;4967646;28;20539;-84
2022/08/18 17:23:40;;;;;;;7.90;7.20;;;;;;;;;;4973487;28;20221;-83
2022/08/18 17:27:03;;;;;;;9.10;7.30;;;;;;;;;;4963143;28;20175;-84
2022/08/18 17:30:12;;;;;;;8.67;6.17;;;;;;;;;;4963170;28;20191;-83
2022/08/18 17:33:30;;;;;;;7.67;6.97;;;;;;;;;;4962448;28;20578;-83
2022/08/18 17:36:45;;;;;;;7.90;7.10;;;;;;;;;;4962569;28;20186;-83
2022/08/18 17:39:54;;;;;;;9.13;7.20;;;;;;;;;;4964268;28;20184;-84
2022/08/18 17:43:00;;;;;;;8.30;7.50;;;;;;;;;;4955517;28;20630;-83
2022/08/18 17:46:24;;;;;;;7.73;6.93;;;;;;;;;;4955963;28;20180;-83
2022/08/18 17:53:04;;;;;;;8.17;7.37;;;;;;;;;;4977256;28;20177;-83
2022/08/18 17:56:11;;;;;;;8.63;7.03;;;;;;;;;;4976736;28;20529;-83
2022/08/18 17:59:34;;;;;;;9.70;8.00;;;;;;;;;;4966428;28;20193;-84
2022/08/18 18:02:43;;;;;;;13.33;7.90;;;;;;;;;;4976854;28;20199;-83
2022/08/18 18:05:56;;;;;;;10.03;7.83;;;;;;;;;;4966006;28;20229;-83
2022/08/18 18:09:08;;;;;;;9.10;8.20;;;;;;;;;;4977099;28;20193;-84
2022/08/18 18:12:22;;;;;;;16.60;11.00;;;;;;;;;;4954668;28;20213;-82
2022/08/18 18:15:31;;;;;;;13.00;9.63;;;;;;;;;;4946422;29;20192;-82
2022/08/18 18:18:40;;;;;;;13.87;10.20;;;;;;;;;;4958219;29;20187;-83
2022/08/18 18:22:02;;;;;;;15.47;10.23;;;;;;;;;;4946746;29;20194;-83
2022/08/18 18:25:09;;;;;;;13.47;10.00;;;;;;;;;;4957076;29;20224;-83
2022/08/18 18:28:29;;;;;;;13.13;9.30;;;;;;;;;;4945954;29;20220;-83
2022/08/18 18:31:33;;;;;;;12.73;9.83;;;;;;;;;;4946106;29;20213;-83
2022/08/18 18:34:44;;;;;;;11.60;8.43;;;;;;;;;;4945879;29;20223;-83
2022/08/18 18:37:55;;;;;;;14.53;9.37;;;;;;;;;;4965722;28;20212;-84
2022/08/18 18:41:01;;;;;;;11.13;9.03;;;;;;;;;;4965652;28;20181;-83
2022/08/18 18:44:12;;;;;;;13.67;9.87;;;;;;;;;;4976369;28;20559;-83
2022/08/18 18:47:41;;;;;;;15.07;9.57;;;;;;;;;;4976922;28;20180;-83
2022/08/18 18:50:54;;;;;;;13.10;9.03;;;;;;;;;;4976580;28;20183;-83
2022/08/18 18:54:08;;;;;;;9.53;8.57;;;;;;;;;;4976506;28;20224;-83
2022/08/18 18:57:33;;;;;;;10.63;9.50;;;;;;;;;;4975973;28;20199;-83
2022/08/18 19:00:49;;;;;;;15.43;9.53;;;;;;;;;;4965195;28;20183;-83
2022/08/18 19:04:05;;;;;;;17.23;11.37;;;;;;;;;;4987591;28;20218;-83
2022/08/18 19:07:31;;;;;;;11.67;10.53;;;;;;;;;;4987399;28;20194;-83
2022/08/18 19:10:45;;;;;;;13.17;11.30;;;;;;;;;;4975947;28;20210;-83
2022/08/18 19:13:55;;;;;;;14.73;13.07;;;;;;;;;;4964735;28;20233;-83
2022/08/18 19:17:03;;;;;;;16.03;14.43;;;;;;;;;;4964978;28;20688;-83
2022/08/18 19:20:15;;;;;;;18.70;14.10;;;;;;;;;;4976762;28;20186;-83
2022/08/18 19:23:30;;;;;;;15.70;13.20;;;;;;;;;;4975991;28;20225;-83
2022/08/18 19:26:41;;;;;;;15.33;13.73;;;;;;;;;;4976895;28;20202;-83
2022/08/18 19:29:46;;;;;;;16.23;12.73;;;;;;;;;;4965377;28;20194;-83